Time;durP1;ratioP1;P1;durP2;ratioP2;P2;SDS_P1;SDS_P2;PMS_P1;PMS_P2;Temp;Humidity;BMP_temperature;BMP_pressure;BME280_temperature;BME280_humidity;BME280_pressure;Samples;Min_cycle;Max_cycle;Signal;HPM_P1;HPM_P2
2023/11/29 00:00:08;;;;;;;5.88;5.10;;;15.40;71.00;;;;;;344038;28;1099;-56
2023/11/29 00:00:19;;;;;;;5.47;4.97;;;15.50;71.00;;;;;;344169;28;1071;-57
2023/11/29 00:00:30;;;;;;;5.57;4.97;;;15.60;71.00;;;;;;344139;28;1412;-57
2023/11/29 00:00:41;;;;;;;8.65;4.95;;;15.60;71.00;;;;;;343988;28;1099;-56
2023/11/29 00:00:52;;;;;;;9.43;5.40;;;15.50;70.90;;;;;;344129;28;834;-56
2023/11/29 00:01:02;;;;;;;7.88;5.45;;;15.60;70.80;;;;;;344149;28;925;-56
2023/11/29 00:01:13;;;;;;;6.32;5.50;;;15.60;70.70;;;;;;344112;28;1035;-56
2023/11/29 00:01:24;;;;;;;7.05;6.00;;;15.60;70.70;;;;;;344142;28;1004;-56
2023/11/29 00:01:35;;;;;;;7.77;6.40;;;15.60;70.60;;;;;;344178;28;1636;-56
2023/11/29 00:01:46;;;;;;;8.50;6.82;;;15.60;70.60;;;;;;344078;28;1023;-56
2023/11/29 00:01:56;;;;;;;8.40;6.90;;;15.70;70.60;;;;;;344116;28;1251;-56
2023/11/29 00:02:07;;;;;;;8.80;7.35;;;15.60;70.60;;;;;;344178;28;819;-56
2023/11/29 00:02:18;;;;;;;8.88;7.68;;;15.70;70.60;;;;;;344157;28;1026;-56
2023/11/29 00:02:29;;;;;;;8.43;7.50;;;15.70;70.60;;;;;;344163;28;1032;-57
2023/11/29 00:02:40;;;;;;;8.77;7.50;;;15.70;70.60;;;;;;344102;28;996;-57
2023/11/29 00:02:50;;;;;;;9.13;7.65;;;15.70;70.60;;;;;;344059;28;1020;-56
2023/11/29 00:03:01;;;;;;;11.27;8.93;;;15.70;70.50;;;;;;344171;28;1035;-57
2023/11/29 00:03:12;;;;;;;13.18;9.98;;;15.70;70.50;;;;;;344090;28;1588;-56
2023/11/29 00:03:23;;;;;;;14.55;10.55;;;15.70;70.50;;;;;;344155;28;1023;-57
2023/11/29 00:03:34;;;;;;;14.30;10.07;;;15.70;70.50;;;;;;344163;28;1039;-55
2023/11/29 00:03:45;;;;;;;13.13;9.68;;;15.70;70.50;;;;;;344160;28;1869;-55
2023/11/29 00:03:56;;;;;;;13.07;9.95;;;15.70;70.40;;;;;;344068;28;1064;-56
2023/11/29 00:04:07;;;;;;;12.80;10.40;;;15.70;70.40;;;;;;344187;28;841;-55
2023/11/29 00:04:17;;;;;;;12.27;9.97;;;15.70;70.30;;;;;;344147;28;1874;-56
2023/11/29 00:04:28;;;;;;;10.50;8.63;;;15.70;70.20;;;;;;344015;28;1017;-56
2023/11/29 00:04:39;;;;;;;9.75;7.95;;;15.70;70.00;;;;;;344178;28;1024;-56
2023/11/29 00:04:49;;;;;;;9.07;7.90;;;15.70;70.00;;;;;;344124;28;880;-56
2023/11/29 00:05:01;;;;;;;8.27;7.37;;;15.70;70.00;;;;;;344070;28;1801;-58
2023/11/29 00:05:12;;;;;;;7.70;6.70;;;15.70;70.10;;;;;;344225;28;1074;-57
2023/11/29 00:05:23;;;;;;;7.47;6.30;;;15.70;70.20;;;;;;344221;28;1006;-56
2023/11/29 00:05:36;;;;;;;7.95;6.82;;;15.70;70.30;;;;;;344049;28;900;-57
2023/11/29 00:05:47;;;;;;;8.98;7.57;;;15.70;70.30;;;;;;344164;28;1086;-57
2023/11/29 00:05:57;;;;;;;8.93;7.68;;;15.60;70.50;;;;;;344190;28;878;-57
2023/11/29 00:06:08;;;;;;;8.73;7.43;;;15.60;70.60;;;;;;344091;28;960;-57
2023/11/29 00:06:19;;;;;;;10.23;7.13;;;15.60;70.70;;;;;;344157;28;1754;-57
2023/11/29 00:06:30;;;;;;;10.27;7.05;;;15.60;70.70;;;;;;344146;28;830;-57
2023/11/29 00:06:40;;;;;;;10.60;7.55;;;15.60;70.70;;;;;;344169;28;992;-57
2023/11/29 00:06:51;;;;;;;9.65;8.27;;;15.60;70.70;;;;;;344110;28;1040;-57
2023/11/29 00:07:02;;;;;;;10.85;8.77;;;15.70;70.60;;;;;;344134;28;1019;-56
2023/11/29 00:07:13;;;;;;;11.40;8.95;;;15.60;70.50;;;;;;344078;28;1040;-57
2023/11/29 00:07:24;;;;;;;11.93;9.33;;;15.60;70.50;;;;;;344180;28;960;-56
2023/11/29 00:07:35;;;;;;;11.15;9.15;;;15.60;70.50;;;;;;344121;28;814;-56
2023/11/29 00:07:45;;;;;;;9.88;8.57;;;15.60;70.50;;;;;;344082;28;1229;-57
2023/11/29 00:07:56;;;;;;;8.98;7.93;;;15.60;70.40;;;;;;344011;28;1466;-57
2023/11/29 00:08:07;;;;;;;8.73;7.60;;;15.60;70.60;;;;;;344164;28;948;-57
2023/11/29 00:08:19;;;;;;;8.68;7.43;;;15.60;70.80;;;;;;344119;28;1004;-56
2023/11/29 00:08:30;;;;;;;8.30;7.07;;;15.60;70.80;;;;;;344166;28;1000;-56
2023/11/29 00:08:41;;;;;;;7.75;6.78;;;15.60;70.70;;;;;;344107;28;890;-56
2023/11/29 00:08:56;;;;;;;8.82;7.43;;;15.60;70.70;;;;;;344021;28;1997;-56
2023/11/29 00:09:07;;;;;;;8.90;7.35;;;15.60;70.70;;;;;;344130;28;944;-56
2023/11/29 00:09:17;;;;;;;9.00;7.30;;;15.60;70.60;;;;;;344149;28;710;-57
2023/11/29 00:09:28;;;;;;;9.00;6.93;;;15.60;70.60;;;;;;344083;28;1662;-55
2023/11/29 00:09:39;;;;;;;8.18;6.75;;;15.60;70.50;;;;;;344208;28;900;-56
2023/11/29 00:09:50;;;;;;;7.60;6.30;;;15.60;70.50;;;;;;344071;28;964;-56
2023/11/29 00:10:01;;;;;;;7.13;6.35;;;15.60;70.50;;;;;;344141;28;1035;-56
2023/11/29 00:10:11;;;;;;;6.75;5.90;;;15.60;70.50;;;;;;344180;28;1654;-56
2023/11/29 00:10:22;;;;;;;6.53;5.73;;;15.60;70.50;;;;;;344077;28;1151;-56
2023/11/29 00:10:33;;;;;;;7.47;6.40;;;15.70;70.50;;;;;;344163;28;784;-56
2023/11/29 00:10:44;;;;;;;10.65;8.43;;;15.60;70.30;;;;;;344075;28;1023;-56
2023/11/29 00:10:55;;;;;;;14.70;10.50;;;15.60;70.50;;;;;;344155;28;829;-57
2023/11/29 00:11:05;;;;;;;15.77;10.93;;;15.60;70.60;;;;;;344138;28;881;-56
2023/11/29 00:11:16;;;;;;;13.95;10.10;;;15.60;70.70;;;;;;344156;28;1051;-56
2023/11/29 00:11:27;;;;;;;12.90;9.70;;;15.60;70.70;;;;;;344133;28;989;-57
2023/11/29 00:11:38;;;;;;;12.85;10.10;;;15.60;70.60;;;;;;344123;28;1115;-56
2023/11/29 00:11:48;;;;;;;12.20;9.45;;;15.60;70.60;;;;;;344161;28;892;-57
2023/11/29 00:12:00;;;;;;;10.50;7.93;;;15.70;70.60;;;;;;344113;28;1635;-56
2023/11/29 00:12:12;;;;;;;8.95;6.85;;;15.70;70.60;;;;;;344085;28;1030;-56
2023/11/29 00:12:23;;;;;;;9.73;7.43;;;15.60;70.60;;;;;;344172;28;1027;-56
2023/11/29 00:12:34;;;;;;;9.07;7.40;;;15.70;70.60;;;;;;344117;28;745;-57
2023/11/29 00:12:44;;;;;;;7.68;6.63;;;15.70;70.50;;;;;;344036;28;1961;-56
2023/11/29 00:12:55;;;;;;;6.93;5.75;;;15.70;70.50;;;;;;344158;28;900;-56
2023/11/29 00:13:07;;;;;;;6.28;5.30;;;15.60;70.50;;;;;;344138;28;1032;-57
2023/11/29 00:13:19;;;;;;;6.45;5.32;;;15.60;70.50;;;;;;344081;28;1134;-57
2023/11/29 00:13:30;;;;;;;6.05;5.22;;;15.60;70.50;;;;;;344129;28;1210;-57
2023/11/29 00:13:41;;;;;;;5.97;5.07;;;15.60;70.40;;;;;;344021;28;1470;-56
2023/11/29 00:13:52;;;;;;;5.38;4.78;;;15.60;70.50;;;;;;344124;28;1020;-56
2023/11/29 00:14:03;;;;;;;5.45;4.80;;;15.50;70.60;;;;;;344095;28;1008;-56
2023/11/29 00:14:13;;;;;;;6.18;5.32;;;15.60;70.60;;;;;;344002;28;1245;-57
2023/11/29 00:14:24;;;;;;;6.90;5.97;;;15.60;70.60;;;;;;344156;28;1026;-57
2023/11/29 00:14:35;;;;;;;8.27;6.70;;;15.60;70.60;;;;;;344132;28;830;-56
2023/11/29 00:14:45;;;;;;;7.75;6.35;;;15.60;70.70;;;;;;344014;28;985;-56
2023/11/29 00:14:56;;;;;;;8.50;6.45;;;15.60;70.70;;;;;;344094;28;1939;-56
2023/11/29 00:15:08;;;;;;;9.00;7.03;;;15.60;70.60;;;;;;344096;28;956;-56
2023/11/29 00:15:19;;;;;;;10.35;8.10;;;15.60;70.60;;;;;;344068;28;1098;-56
2023/11/29 00:15:29;;;;;;;11.98;8.60;;;15.60;70.60;;;;;;344160;28;980;-56
2023/11/29 00:15:40;;;;;;;11.33;8.13;;;15.60;70.60;;;;;;344057;28;1116;-56
2023/11/29 00:15:51;;;;;;;9.27;6.83;;;15.60;70.50;;;;;;344051;28;2256;-56
2023/11/29 00:16:02;;;;;;;6.82;6.07;;;15.60;70.50;;;;;;344100;28;984;-56
2023/11/29 00:16:12;;;;;;;6.95;5.90;;;15.60;70.60;;;;;;344146;28;1039;-56
2023/11/29 00:16:23;;;;;;;7.10;5.95;;;15.60;70.60;;;;;;344118;28;1046;-55
2023/11/29 00:16:35;;;;;;;6.80;5.50;;;15.60;70.60;;;;;;344114;28;968;-57
2023/11/29 00:16:45;;;;;;;6.10;5.18;;;15.60;70.60;;;;;;344112;28;984;-56
2023/11/29 00:16:56;;;;;;;6.55;5.63;;;15.60;70.60;;;;;;344043;28;995;-57
2023/11/29 00:17:07;;;;;;;6.75;6.05;;;15.60;70.60;;;;;;344152;28;996;-57
2023/11/29 00:17:18;;;;;;;6.72;6.03;;;15.60;70.60;;;;;;344101;28;1054;-57
2023/11/29 00:17:29;;;;;;;6.93;5.70;;;15.60;70.70;;;;;;344149;28;1008;-57
2023/11/29 00:17:40;;;;;;;8.45;6.20;;;15.60;70.70;;;;;;344063;28;1015;-58
2023/11/29 00:17:51;;;;;;;8.77;6.50;;;15.70;70.70;;;;;;344074;28;2513;-56
2023/11/29 00:18:02;;;;;;;7.53;6.30;;;15.60;70.60;;;;;;344016;28;1396;-57
2023/11/29 00:18:14;;;;;;;6.35;5.40;;;15.70;70.50;;;;;;344180;28;885;-56
2023/11/29 00:18:24;;;;;;;5.80;5.18;;;15.70;70.40;;;;;;344068;28;1104;-56
2023/11/29 00:18:36;;;;;;;5.68;5.05;;;15.60;70.40;;;;;;344118;28;1036;-56
2023/11/29 00:18:48;;;;;;;6.38;5.72;;;15.60;70.60;;;;;;344102;28;1198;-57
2023/11/29 00:18:59;;;;;;;7.50;6.70;;;15.60;70.70;;;;;;344176;28;1040;-56
2023/11/29 00:19:10;;;;;;;7.03;6.25;;;15.60;70.70;;;;;;344086;28;893;-57
2023/11/29 00:19:20;;;;;;;6.78;6.05;;;15.60;70.70;;;;;;344148;28;972;-56
2023/11/29 00:19:31;;;;;;;9.47;7.97;;;15.70;70.60;;;;;;344024;28;1220;-57
2023/11/29 00:19:43;;;;;;;11.02;9.10;;;15.70;70.60;;;;;;344056;28;1605;-55
2023/11/29 00:19:53;;;;;;;9.93;8.20;;;15.60;70.60;;;;;;344052;28;1035;-56
2023/11/29 00:20:05;;;;;;;7.18;5.95;;;15.70;70.50;;;;;;344134;28;1024;-56
2023/11/29 00:20:16;;;;;;;6.60;5.43;;;15.70;70.40;;;;;;344053;28;940;-56
2023/11/29 00:20:27;;;;;;;6.25;5.10;;;15.70;70.40;;;;;;344158;28;1238;-56
2023/11/29 00:20:37;;;;;;;6.07;5.43;;;15.70;70.40;;;;;;344035;28;1012;-56
2023/11/29 00:20:48;;;;;;;6.72;6.00;;;15.70;70.40;;;;;;344129;28;1044;-57
2023/11/29 00:21:02;;;;;;;7.43;6.50;;;15.70;70.40;;;;;;343961;28;1543;-57
2023/11/29 00:21:13;;;;;;;7.63;6.68;;;15.70;70.30;;;;;;344168;28;1611;-56
2023/11/29 00:21:24;;;;;;;7.80;7.00;;;15.70;70.30;;;;;;344071;28;1113;-56
2023/11/29 00:21:41;;;;;;;8.57;7.15;;;15.70;70.30;;;;;;344143;28;1051;-56
2023/11/29 00:21:51;;;;;;;9.30;6.07;;;15.70;70.30;;;;;;344056;28;1146;-56
2023/11/29 00:22:03;;;;;;;8.65;5.53;;;15.60;70.40;;;;;;344011;28;1152;-56
2023/11/29 00:22:15;;;;;;;6.85;5.20;;;15.60;70.60;;;;;;344196;28;809;-55
2023/11/29 00:22:25;;;;;;;5.78;5.15;;;15.60;70.60;;;;;;344111;28;1201;-56
2023/11/29 00:22:36;;;;;;;5.70;5.07;;;15.60;70.70;;;;;;344083;28;1111;-56
2023/11/29 00:22:47;;;;;;;5.50;4.78;;;15.60;70.70;;;;;;344014;28;1056;-56
2023/11/29 00:22:58;;;;;;;5.63;4.60;;;15.60;70.70;;;;;;344161;28;1031;-56
2023/11/29 00:23:10;;;;;;;5.70;4.57;;;15.60;70.60;;;;;;344132;28;1070;-56
2023/11/29 00:23:21;;;;;;;6.18;4.60;;;15.60;70.60;;;;;;344134;28;916;-55
2023/11/29 00:23:32;;;;;;;6.38;4.90;;;15.60;70.60;;;;;;344188;28;1114;-57
2023/11/29 00:23:42;;;;;;;6.40;5.20;;;15.70;70.60;;;;;;344101;28;1035;-56
2023/11/29 00:23:54;;;;;;;5.77;5.17;;;15.60;70.60;;;;;;344191;28;849;-56
2023/11/29 00:24:05;;;;;;;5.13;4.53;;;15.60;70.50;;;;;;344188;28;825;-56
2023/11/29 00:24:16;;;;;;;5.03;4.28;;;15.60;70.50;;;;;;344068;28;1091;-56
2023/11/29 00:24:26;;;;;;;4.90;4.25;;;15.70;70.40;;;;;;344164;28;789;-58
2023/11/29 00:24:37;;;;;;;5.80;5.00;;;15.70;70.30;;;;;;344079;28;1227;-57
2023/11/29 00:24:48;;;;;;;6.00;5.37;;;15.70;70.30;;;;;;344064;28;1048;-56
2023/11/29 00:24:59;;;;;;;8.48;6.53;;;15.70;70.30;;;;;;344188;28;929;-56
2023/11/29 00:25:09;;;;;;;8.52;6.70;;;15.70;70.30;;;;;;344180;28;1059;-58
2023/11/29 00:25:20;;;;;;;8.85;7.28;;;15.70;70.20;;;;;;344128;28;992;-56
2023/11/29 00:25:31;;;;;;;7.88;6.68;;;15.60;70.30;;;;;;344167;28;908;-56
2023/11/29 00:25:42;;;;;;;7.37;6.20;;;15.70;70.40;;;;;;344081;28;809;-56
2023/11/29 00:25:53;;;;;;;6.72;5.90;;;15.70;70.40;;;;;;344097;28;1058;-57
2023/11/29 00:26:03;;;;;;;6.22;5.57;;;15.70;70.40;;;;;;344055;28;1103;-57
2023/11/29 00:26:14;;;;;;;5.75;5.03;;;15.70;70.40;;;;;;344150;28;933;-56
2023/11/29 00:26:25;;;;;;;5.35;4.68;;;15.60;70.40;;;;;;344041;28;1099;-57
2023/11/29 00:26:36;;;;;;;5.57;4.97;;;15.60;70.50;;;;;;344203;28;869;-56
2023/11/29 00:26:46;;;;;;;5.55;4.93;;;15.60;70.50;;;;;;344118;28;908;-57
2023/11/29 00:26:57;;;;;;;5.63;5.03;;;15.60;70.50;;;;;;344041;28;1203;-57
2023/11/29 00:27:08;;;;;;;5.20;4.70;;;15.50;70.80;;;;;;344063;28;1016;-57
2023/11/29 00:27:19;;;;;;;5.43;4.75;;;15.50;70.90;;;;;;344109;28;1587;-57
2023/11/29 00:27:29;;;;;;;5.60;4.50;;;15.50;71.00;;;;;;344127;28;904;-57
2023/11/29 00:27:40;;;;;;;6.47;4.50;;;15.50;71.00;;;;;;344064;28;1071;-56
2023/11/29 00:27:51;;;;;;;6.15;4.55;;;15.50;70.90;;;;;;344076;28;918;-56
2023/11/29 00:28:02;;;;;;;6.70;5.10;;;15.50;70.80;;;;;;344093;28;938;-56
2023/11/29 00:28:12;;;;;;;6.15;5.20;;;15.50;70.80;;;;;;344116;28;1047;-57
2023/11/29 00:28:23;;;;;;;6.17;5.00;;;15.60;70.80;;;;;;344129;28;822;-56
2023/11/29 00:28:34;;;;;;;6.20;5.00;;;15.50;70.90;;;;;;344035;28;1012;-56
2023/11/29 00:28:44;;;;;;;6.22;4.90;;;15.50;70.80;;;;;;344111;28;953;-57
2023/11/29 00:28:55;;;;;;;6.18;4.97;;;15.60;70.90;;;;;;344143;28;1976;-56
2023/11/29 00:29:06;;;;;;;6.33;5.00;;;15.50;70.80;;;;;;344116;28;1898;-56
2023/11/29 00:29:17;;;;;;;6.40;4.88;;;15.60;70.80;;;;;;344203;28;992;-56
2023/11/29 00:29:28;;;;;;;5.55;4.68;;;15.60;70.80;;;;;;344172;28;825;-56
2023/11/29 00:29:38;;;;;;;5.55;4.78;;;15.60;70.80;;;;;;344019;28;1094;-56
2023/11/29 00:29:49;;;;;;;6.63;5.10;;;15.60;70.70;;;;;;344087;28;1048;-56
2023/11/29 00:30:00;;;;;;;6.53;5.28;;;15.60;70.70;;;;;;344168;28;1047;-57
2023/11/29 00:30:11;;;;;;;5.75;5.07;;;15.60;70.70;;;;;;344060;28;1047;-56
2023/11/29 00:30:22;;;;;;;5.43;4.90;;;15.60;70.70;;;;;;344169;28;1023;-56
2023/11/29 00:30:33;;;;;;;5.95;4.57;;;15.60;70.60;;;;;;344172;28;1015;-57
2023/11/29 00:30:44;;;;;;;6.72;4.68;;;15.60;70.60;;;;;;344059;28;1054;-56
2023/11/29 00:30:55;;;;;;;7.07;4.70;;;15.60;70.50;;;;;;344093;28;1071;-56
2023/11/29 00:31:05;;;;;;;7.05;4.85;;;15.60;70.60;;;;;;344203;28;1008;-57
2023/11/29 00:31:16;;;;;;;6.60;4.70;;;15.60;70.50;;;;;;344063;28;1030;-56
2023/11/29 00:31:27;;;;;;;5.93;4.50;;;15.60;70.60;;;;;;344166;28;1075;-56
2023/11/29 00:31:38;;;;;;;5.68;4.50;;;15.50;70.80;;;;;;344096;28;1008;-57
2023/11/29 00:31:49;;;;;;;5.45;4.57;;;15.50;70.90;;;;;;344117;28;988;-57
2023/11/29 00:32:00;;;;;;;5.63;4.93;;;15.50;70.90;;;;;;344102;28;935;-55
2023/11/29 00:32:11;;;;;;;5.57;4.82;;;15.50;71.00;;;;;;344058;28;892;-57
2023/11/29 00:32:22;;;;;;;5.78;4.78;;;15.50;71.10;;;;;;344144;28;964;-56
2023/11/29 00:32:33;;;;;;;5.22;4.63;;;15.50;71.10;;;;;;344171;28;746;-57
2023/11/29 00:32:43;;;;;;;5.00;4.50;;;15.50;71.10;;;;;;344112;28;964;-56
2023/11/29 00:32:55;;;;;;;6.80;6.10;;;15.50;71.00;;;;;;344148;28;873;-58
2023/11/29 00:33:06;;;;;;;7.38;6.32;;;15.50;70.90;;;;;;344079;28;909;-57
2023/11/29 00:33:17;;;;;;;6.88;5.78;;;15.50;71.00;;;;;;344183;28;984;-56
2023/11/29 00:33:28;;;;;;;4.97;4.20;;;15.50;70.90;;;;;;344139;28;802;-55
2023/11/29 00:33:38;;;;;;;4.70;4.18;;;15.50;70.90;;;;;;344154;28;921;-55
2023/11/29 00:33:49;;;;;;;6.97;6.22;;;15.50;71.00;;;;;;344034;28;1182;-56
2023/11/29 00:34:00;;;;;;;7.50;6.63;;;15.50;71.00;;;;;;344102;28;1037;-56
2023/11/29 00:34:11;;;;;;;9.30;8.15;;;15.50;71.00;;;;;;344180;28;1035;-55
2023/11/29 00:34:22;;;;;;;9.27;8.27;;;15.50;71.00;;;;;;344092;28;1158;-56
2023/11/29 00:34:32;;;;;;;9.60;8.60;;;15.50;71.00;;;;;;344127;28;980;-56
2023/11/29 00:34:43;;;;;;;7.32;6.53;;;15.50;71.00;;;;;;344085;28;870;-57
2023/11/29 00:34:54;;;;;;;5.97;5.18;;;15.50;71.00;;;;;;343997;28;1103;-57
2023/11/29 00:35:05;;;;;;;5.27;4.37;;;15.50;71.00;;;;;;344177;28;1622;-56
2023/11/29 00:35:19;;;;;;;4.80;4.03;;;15.60;71.00;;;;;;344093;28;1039;-56
2023/11/29 00:35:30;;;;;;;5.45;4.45;;;15.50;70.90;;;;;;344122;28;1047;-55
2023/11/29 00:35:41;;;;;;;5.40;4.78;;;15.60;70.80;;;;;;344110;28;1047;-56
2023/11/29 00:35:52;;;;;;;5.35;4.85;;;15.50;70.90;;;;;;344055;28;999;-55
2023/11/29 00:36:03;;;;;;;5.43;4.60;;;15.50;70.90;;;;;;344181;28;1042;-57
2023/11/29 00:36:14;;;;;;;5.43;4.60;;;15.60;70.90;;;;;;344196;28;1039;-56
2023/11/29 00:36:25;;;;;;;6.30;5.22;;;15.60;70.90;;;;;;344120;28;1306;-56
2023/11/29 00:36:36;;;;;;;6.72;5.82;;;15.60;70.90;;;;;;344149;28;786;-55
2023/11/29 00:36:49;;;;;;;7.03;6.03;;;15.60;70.90;;;;;;343962;28;1163;-58
2023/11/29 00:37:01;;;;;;;6.97;6.00;;;15.60;70.90;;;;;;344102;28;1119;-56
2023/11/29 00:37:12;;;;;;;7.38;6.20;;;15.60;70.80;;;;;;344170;28;984;-56
2023/11/29 00:37:22;;;;;;;7.55;6.28;;;15.50;70.80;;;;;;344096;28;1083;-56
2023/11/29 00:37:33;;;;;;;6.67;5.67;;;15.50;70.90;;;;;;344087;28;929;-56
2023/11/29 00:37:44;;;;;;;6.25;5.30;;;15.60;70.90;;;;;;344122;28;885;-56
2023/11/29 00:37:55;;;;;;;5.63;4.75;;;15.60;70.90;;;;;;344077;28;1328;-56
2023/11/29 00:38:06;;;;;;;5.32;4.30;;;15.60;70.90;;;;;;344112;28;996;-56
2023/11/29 00:38:16;;;;;;;5.10;4.00;;;15.60;70.80;;;;;;344096;28;1082;-56
2023/11/29 00:38:27;;;;;;;5.47;4.07;;;15.60;70.80;;;;;;344132;28;969;-56
2023/11/29 00:38:38;;;;;;;4.93;4.30;;;15.70;70.70;;;;;;344068;28;1112;-56
2023/11/29 00:38:49;;;;;;;6.63;5.63;;;15.70;70.60;;;;;;344185;28;793;-57
2023/11/29 00:38:59;;;;;;;6.95;6.15;;;15.60;70.50;;;;;;343929;28;1076;-57
2023/11/29 00:39:10;;;;;;;7.18;6.07;;;15.70;70.50;;;;;;344057;28;1275;-56
2023/11/29 00:39:21;;;;;;;6.53;5.80;;;15.70;70.40;;;;;;344130;28;1027;-56
2023/11/29 00:39:32;;;;;;;6.27;5.53;;;15.70;70.40;;;;;;344104;28;979;-55
2023/11/29 00:39:43;;;;;;;6.57;5.85;;;15.70;70.40;;;;;;344018;28;1050;-56
2023/11/29 00:39:54;;;;;;;6.93;6.10;;;15.70;70.40;;;;;;344440;28;1023;-57
2023/11/29 00:40:05;;;;;;;6.95;6.15;;;15.70;70.40;;;;;;344409;28;1060;-56
2023/11/29 00:40:16;;;;;;;6.10;5.45;;;15.70;70.40;;;;;;344364;28;1043;-56
2023/11/29 00:40:27;;;;;;;5.75;4.68;;;15.70;70.40;;;;;;344322;28;1568;-56
2023/11/29 00:40:38;;;;;;;5.70;4.80;;;15.70;70.40;;;;;;344434;28;782;-56
2023/11/29 00:40:48;;;;;;;6.20;5.43;;;15.70;70.40;;;;;;344362;28;890;-57
2023/11/29 00:40:59;;;;;;;6.50;5.80;;;15.70;70.50;;;;;;344392;28;960;-57
2023/11/29 00:41:10;;;;;;;5.78;5.10;;;15.70;70.40;;;;;;344306;28;915;-57
2023/11/29 00:41:20;;;;;;;4.93;4.32;;;15.70;70.40;;;;;;344375;28;1036;-57
2023/11/29 00:41:31;;;;;;;4.87;4.07;;;15.70;70.40;;;;;;344358;28;1150;-57
2023/11/29 00:41:42;;;;;;;5.32;4.15;;;15.70;70.40;;;;;;344260;28;1417;-56
2023/11/29 00:41:53;;;;;;;4.97;4.10;;;15.70;70.30;;;;;;344404;28;1020;-56
2023/11/29 00:42:04;;;;;;;5.07;4.05;;;15.70;70.30;;;;;;344289;28;1040;-56
2023/11/29 00:42:15;;;;;;;4.95;3.90;;;15.70;70.30;;;;;;344372;28;873;-57
2023/11/29 00:42:25;;;;;;;5.00;3.97;;;15.70;70.20;;;;;;344389;28;1048;-57
2023/11/29 00:42:36;;;;;;;5.37;4.00;;;15.70;70.30;;;;;;344418;28;806;-57
2023/11/29 00:42:47;;;;;;;5.45;3.83;;;15.70;70.40;;;;;;344386;28;707;-56
2023/11/29 00:42:58;;;;;;;5.28;3.80;;;15.70;70.30;;;;;;344310;28;889;-57
2023/11/29 00:43:08;;;;;;;5.07;3.88;;;15.70;70.30;;;;;;344359;28;722;-57
2023/11/29 00:43:19;;;;;;;4.78;4.10;;;15.70;70.40;;;;;;344331;28;1020;-56
2023/11/29 00:43:31;;;;;;;4.70;3.97;;;15.70;70.30;;;;;;344418;28;1064;-57
2023/11/29 00:43:42;;;;;;;4.35;3.88;;;15.70;70.30;;;;;;344368;28;914;-56
2023/11/29 00:43:53;;;;;;;4.50;3.80;;;15.70;70.30;;;;;;344222;28;1256;-56
2023/11/29 00:44:04;;;;;;;4.78;3.85;;;15.70;70.30;;;;;;344376;28;976;-56
2023/11/29 00:44:14;;;;;;;4.93;3.78;;;15.70;70.30;;;;;;344449;28;1004;-56
2023/11/29 00:44:25;;;;;;;5.28;3.75;;;15.70;70.30;;;;;;344348;28;1102;-57
2023/11/29 00:44:36;;;;;;;5.05;3.50;;;15.70;70.30;;;;;;344369;28;1079;-57
2023/11/29 00:44:47;;;;;;;5.13;3.63;;;15.70;70.20;;;;;;344280;28;843;-56
2023/11/29 00:44:57;;;;;;;4.63;3.70;;;15.70;70.10;;;;;;344386;28;996;-55
2023/11/29 00:45:09;;;;;;;5.45;4.13;;;15.70;70.20;;;;;;344341;28;770;-56
2023/11/29 00:45:19;;;;;;;5.10;4.13;;;15.70;70.20;;;;;;344356;28;964;-56
2023/11/29 00:45:30;;;;;;;5.45;3.90;;;15.70;70.30;;;;;;344321;28;1063;-55
2023/11/29 00:45:41;;;;;;;4.68;3.67;;;15.70;70.30;;;;;;344320;28;1123;-56
2023/11/29 00:45:52;;;;;;;5.03;3.60;;;15.70;70.30;;;;;;344338;28;1115;-57
2023/11/29 00:46:03;;;;;;;4.93;3.72;;;15.70;70.30;;;;;;344410;28;826;-56
2023/11/29 00:46:14;;;;;;;4.80;3.65;;;15.70;70.30;;;;;;344445;28;802;-56
2023/11/29 00:46:25;;;;;;;4.35;3.53;;;15.70;70.30;;;;;;344358;28;1524;-56
2023/11/29 00:46:35;;;;;;;4.03;3.42;;;15.70;70.30;;;;;;344279;28;1024;-56
2023/11/29 00:46:46;;;;;;;4.40;3.60;;;15.70;70.30;;;;;;344285;28;1577;-56
2023/11/29 00:46:57;;;;;;;5.07;3.80;;;15.70;70.30;;;;;;344340;28;1793;-56
2023/11/29 00:47:08;;;;;;;4.80;3.80;;;15.70;70.20;;;;;;344353;28;1828;-56
2023/11/29 00:47:19;;;;;;;4.80;3.90;;;15.70;70.20;;;;;;344389;28;1024;-57
2023/11/29 00:47:30;;;;;;;4.57;3.95;;;15.70;70.10;;;;;;344283;28;1015;-56
2023/11/29 00:47:41;;;;;;;5.07;3.80;;;15.70;70.10;;;;;;344396;28;1048;-56
2023/11/29 00:47:51;;;;;;;5.15;3.80;;;15.70;70.30;;;;;;344343;28;888;-56
2023/11/29 00:48:02;;;;;;;5.65;3.90;;;15.70;70.30;;;;;;344341;28;1075;-55
2023/11/29 00:48:13;;;;;;;5.20;3.93;;;15.70;70.30;;;;;;344345;28;1004;-56
2023/11/29 00:48:24;;;;;;;5.07;3.87;;;15.70;70.40;;;;;;344300;28;984;-56
2023/11/29 00:48:34;;;;;;;5.18;3.90;;;15.70;70.30;;;;;;344326;28;1025;-56
2023/11/29 00:48:45;;;;;;;5.40;4.00;;;15.70;70.30;;;;;;344194;28;1041;-57
2023/11/29 00:48:56;;;;;;;5.40;4.10;;;15.70;70.30;;;;;;344157;28;1922;-56
2023/11/29 00:49:07;;;;;;;5.17;4.17;;;15.70;70.40;;;;;;344332;28;706;-57
2023/11/29 00:49:18;;;;;;;4.82;4.18;;;15.70;70.50;;;;;;344148;28;1081;-56
2023/11/29 00:49:29;;;;;;;5.00;4.00;;;15.70;70.40;;;;;;344262;28;1004;-56
2023/11/29 00:49:39;;;;;;;4.95;3.90;;;15.70;70.40;;;;;;344267;28;714;-57
2023/11/29 00:49:50;;;;;;;5.30;3.78;;;15.70;70.40;;;;;;344281;28;1542;-56
2023/11/29 00:50:01;;;;;;;4.93;3.63;;;15.70;70.40;;;;;;344240;28;1088;-56
2023/11/29 00:50:12;;;;;;;5.35;3.50;;;15.70;70.40;;;;;;344188;28;901;-56
2023/11/29 00:50:22;;;;;;;5.30;3.72;;;15.70;70.40;;;;;;344280;28;888;-57
2023/11/29 00:50:34;;;;;;;4.57;4.00;;;15.70;70.40;;;;;;344244;28;1075;-57
2023/11/29 00:50:45;;;;;;;4.60;4.10;;;15.70;70.40;;;;;;344347;28;1055;-57
2023/11/29 00:50:55;;;;;;;4.43;3.83;;;15.70;70.40;;;;;;344396;28;948;-56
2023/11/29 00:51:06;;;;;;;4.55;3.63;;;15.70;70.40;;;;;;344286;28;1043;-57
2023/11/29 00:51:17;;;;;;;5.15;3.70;;;15.70;70.40;;;;;;344367;28;977;-57
2023/11/29 00:51:27;;;;;;;5.22;3.80;;;15.70;70.40;;;;;;344408;28;1043;-57
2023/11/29 00:51:38;;;;;;;5.13;4.00;;;15.70;70.40;;;;;;344297;28;984;-56
2023/11/29 00:51:49;;;;;;;4.93;4.00;;;15.70;70.40;;;;;;344275;28;1291;-57
2023/11/29 00:52:00;;;;;;;4.72;3.95;;;15.70;70.40;;;;;;344273;28;1152;-57
2023/11/29 00:52:11;;;;;;;5.13;4.05;;;15.70;70.40;;;;;;344336;28;1016;-56
2023/11/29 00:52:22;;;;;;;5.32;3.90;;;15.70;70.40;;;;;;344373;28;1044;-56
2023/11/29 00:52:33;;;;;;;5.55;3.85;;;15.70;70.40;;;;;;344317;28;939;-56
2023/11/29 00:52:43;;;;;;;5.35;3.70;;;15.70;70.30;;;;;;344363;28;965;-57
2023/11/29 00:52:54;;;;;;;4.70;3.50;;;15.70;70.30;;;;;;344353;28;1070;-56
2023/11/29 00:53:05;;;;;;;4.43;3.40;;;15.70;70.30;;;;;;344288;28;1845;-56
2023/11/29 00:53:16;;;;;;;5.35;3.72;;;15.70;70.30;;;;;;344345;28;1867;-55
2023/11/29 00:53:26;;;;;;;5.63;4.10;;;15.70;70.20;;;;;;344322;28;1059;-56
2023/11/29 00:53:37;;;;;;;5.25;4.18;;;15.70;70.40;;;;;;344306;28;1095;-56
2023/11/29 00:53:48;;;;;;;4.38;3.75;;;15.70;70.40;;;;;;344299;28;977;-56
2023/11/29 00:53:59;;;;;;;3.92;3.40;;;15.70;70.40;;;;;;344343;28;1329;-56
2023/11/29 00:54:11;;;;;;;4.20;3.47;;;15.70;70.40;;;;;;344290;28;873;-57
2023/11/29 00:54:22;;;;;;;4.80;3.90;;;15.70;70.30;;;;;;344399;28;857;-56
2023/11/29 00:54:32;;;;;;;5.53;3.93;;;15.70;70.40;;;;;;344342;28;1052;-57
2023/11/29 00:54:43;;;;;;;5.25;3.67;;;15.70;70.40;;;;;;344259;28;1143;-56
2023/11/29 00:54:54;;;;;;;5.72;3.95;;;15.70;70.40;;;;;;344374;28;1048;-56
2023/11/29 00:55:05;;;;;;;5.65;4.10;;;15.70;70.40;;;;;;344357;28;1623;-56
2023/11/29 00:55:16;;;;;;;5.45;4.13;;;15.70;70.40;;;;;;344292;28;1029;-56
2023/11/29 00:55:27;;;;;;;4.97;3.50;;;15.70;70.40;;;;;;344363;28;691;-57
2023/11/29 00:55:38;;;;;;;4.45;3.30;;;15.70;70.30;;;;;;344343;28;1568;-55
2023/11/29 00:55:49;;;;;;;4.65;3.58;;;15.60;70.20;;;;;;344259;28;969;-56
2023/11/29 00:55:59;;;;;;;4.35;3.67;;;15.70;70.20;;;;;;344359;28;1027;-56
2023/11/29 00:56:10;;;;;;;4.37;3.50;;;15.70;70.20;;;;;;344324;28;1008;-56
2023/11/29 00:56:21;;;;;;;4.72;3.17;;;15.70;70.10;;;;;;344300;28;1056;-56
2023/11/29 00:56:32;;;;;;;5.20;3.38;;;15.70;70.00;;;;;;344370;28;1092;-56
2023/11/29 00:56:42;;;;;;;6.32;3.97;;;15.70;70.00;;;;;;344333;28;738;-56
2023/11/29 00:56:53;;;;;;;6.93;4.95;;;15.70;69.90;;;;;;344264;28;1865;-57
2023/11/29 00:57:04;;;;;;;6.80;5.00;;;15.70;70.00;;;;;;344332;28;1024;-56
2023/11/29 00:57:15;;;;;;;5.43;4.60;;;15.70;69.90;;;;;;344339;28;984;-56
2023/11/29 00:57:26;;;;;;;4.35;3.70;;;15.70;69.90;;;;;;344294;28;1561;-56
2023/11/29 00:57:36;;;;;;;4.40;3.72;;;15.70;69.80;;;;;;344308;28;1771;-56
2023/11/29 00:57:47;;;;;;;4.78;3.70;;;15.70;69.80;;;;;;344296;28;1051;-56
2023/11/29 00:57:58;;;;;;;4.80;3.80;;;15.70;69.70;;;;;;344276;28;1042;-56
2023/11/29 00:58:08;;;;;;;4.22;3.38;;;15.70;69.60;;;;;;344384;28;989;-57
2023/11/29 00:58:19;;;;;;;3.47;3.03;;;15.70;69.70;;;;;;344303;28;1083;-55
2023/11/29 00:58:30;;;;;;;3.50;3.00;;;15.70;69.80;;;;;;344269;28;1004;-55
2023/11/29 00:58:41;;;;;;;3.95;3.00;;;15.70;69.90;;;;;;344469;28;949;-56